sensor_id;sensor_type;location;lat;lon;timestamp;P1;durP1;ratioP1;P2;durP2;ratioP2
8048;SDS011;20935;42.660;23.342;2023-02-28T00:00:45;20.23;;;13.83;;
8048;SDS011;20935;42.660;23.342;2023-02-28T00:03:32;19.77;;;13.97;;
8048;SDS011;20935;42.660;23.342;2023-02-28T00:06:18;22.53;;;14.27;;
8048;SDS011;20935;42.660;23.342;2023-02-28T00:09:04;22.27;;;14.93;;
8048;SDS011;20935;42.660;23.342;2023-02-28T00:11:49;21.50;;;14.60;;
8048;SDS011;20935;42.660;23.342;2023-02-28T00:14:35;24.50;;;15.07;;
8048;SDS011;20935;42.660;23.342;2023-02-28T00:17:21;24.30;;;15.27;;
8048;SDS011;20935;42.660;23.342;2023-02-28T00:20:08;23.80;;;15.30;;
8048;SDS011;20935;42.660;23.342;2023-02-28T00:22:55;22.53;;;14.97;;
8048;SDS011;20935;42.660;23.342;2023-02-28T00:25:41;20.60;;;14.23;;
8048;SDS011;20935;42.660;23.342;2023-02-28T00:28:26;20.03;;;13.63;;
8048;SDS011;20935;42.660;23.342;2023-02-28T00:31:11;19.23;;;13.30;;
8048;SDS011;20935;42.660;23.342;2023-02-28T00:33:57;18.90;;;12.67;;
8048;SDS011;20935;42.660;23.342;2023-02-28T00:36:43;24.00;;;15.70;;
8048;SDS011;20935;42.660;23.342;2023-02-28T00:39:33;24.70;;;14.83;;
8048;SDS011;20935;42.660;23.342;2023-02-28T00:42:19;20.37;;;14.60;;
8048;SDS011;20935;42.660;23.342;2023-02-28T00:45:05;22.27;;;13.57;;
8048;SDS011;20935;42.660;23.342;2023-02-28T00:47:51;22.37;;;14.27;;
8048;SDS011;20935;42.660;23.342;2023-02-28T00:50:37;20.23;;;13.70;;
8048;SDS011;20935;42.660;23.342;2023-02-28T00:53:24;19.43;;;13.33;;
8048;SDS011;20935;42.660;23.342;2023-02-28T00:56:09;22.90;;;14.97;;
8048;SDS011;20935;42.660;23.342;2023-02-28T00:58:55;22.70;;;14.70;;
8048;SDS011;20935;42.660;23.342;2023-02-28T01:01:40;23.50;;;14.97;;
8048;SDS011;20935;42.660;23.342;2023-02-28T01:04:26;21.57;;;14.43;;
8048;SDS011;20935;42.660;23.342;2023-02-28T01:07:11;22.90;;;14.27;;
8048;SDS011;20935;42.660;23.342;2023-02-28T01:09:59;24.33;;;16.67;;
8048;SDS011;20935;42.660;23.342;2023-02-28T01:12:44;24.83;;;16.60;;
8048;SDS011;20935;42.660;23.342;2023-02-28T01:15:30;26.63;;;17.03;;
8048;SDS011;20935;42.660;23.342;2023-02-28T01:18:18;25.60;;;17.27;;
8048;SDS011;20935;42.660;23.342;2023-02-28T01:21:05;26.80;;;16.90;;
8048;SDS011;20935;42.660;23.342;2023-02-28T01:23:51;25.20;;;16.17;;
8048;SDS011;20935;42.660;23.342;2023-02-28T01:26:38;28.23;;;17.00;;
8048;SDS011;20935;42.660;23.342;2023-02-28T01:29:23;26.13;;;17.33;;
8048;SDS011;20935;42.660;23.342;2023-02-28T01:32:09;26.20;;;16.17;;
8048;SDS011;20935;42.660;23.342;2023-02-28T01:34:55;21.70;;;15.93;;
8048;SDS011;20935;42.660;23.342;2023-02-28T01:37:40;24.97;;;16.83;;
8048;SDS011;20935;42.660;23.342;2023-02-28T01:40:26;24.27;;;16.47;;
8048;SDS011;20935;42.660;23.342;2023-02-28T01:43:16;23.33;;;16.70;;
8048;SDS011;20935;42.660;23.342;2023-02-28T01:46:06;27.30;;;18.27;;
8048;SDS011;20935;42.660;23.342;2023-02-28T01:48:52;28.10;;;18.37;;
8048;SDS011;20935;42.660;23.342;2023-02-28T01:51:45;26.30;;;17.13;;
8048;SDS011;20935;42.660;23.342;2023-02-28T01:54:34;27.57;;;18.13;;
8048;SDS011;20935;42.660;23.342;2023-02-28T01:57:20;26.00;;;17.83;;
8048;SDS011;20935;42.660;23.342;2023-02-28T02:00:12;30.23;;;18.53;;
8048;SDS011;20935;42.660;23.342;2023-02-28T02:03:00;25.87;;;17.43;;
8048;SDS011;20935;42.660;23.342;2023-02-28T02:05:50;28.43;;;19.07;;
8048;SDS011;20935;42.660;23.342;2023-02-28T02:08:35;30.90;;;18.87;;
8048;SDS011;20935;42.660;23.342;2023-02-28T02:11:22;24.17;;;17.53;;
8048;SDS011;20935;42.660;23.342;2023-02-28T02:14:16;25.17;;;17.30;;
8048;SDS011;20935;42.660;23.342;2023-02-28T02:17:18;28.37;;;17.90;;
8048;SDS011;20935;42.660;23.342;2023-02-28T02:23:47;25.40;;;17.30;;
8048;SDS011;20935;42.660;23.342;2023-02-28T02:26:53;26.17;;;17.20;;
8048;SDS011;20935;42.660;23.342;2023-02-28T02:33:27;27.47;;;17.63;;
8048;SDS011;20935;42.660;23.342;2023-02-28T02:36:28;24.07;;;16.50;;
8048;SDS011;20935;42.660;23.342;2023-02-28T02:39:19;27.17;;;16.67;;
8048;SDS011;20935;42.660;23.342;2023-02-28T02:42:14;26.97;;;18.73;;
8048;SDS011;20935;42.660;23.342;2023-02-28T02:45:03;23.13;;;16.83;;
8048;SDS011;20935;42.660;23.342;2023-02-28T02:47:54;26.97;;;18.47;;
8048;SDS011;20935;42.660;23.342;2023-02-28T02:50:45;26.13;;;17.37;;
8048;SDS011;20935;42.660;23.342;2023-02-28T02:53:34;29.40;;;18.13;;
8048;SDS011;20935;42.660;23.342;2023-02-28T02:56:24;31.57;;;21.43;;
8048;SDS011;20935;42.660;23.342;2023-02-28T02:59:12;33.57;;;20.43;;
8048;SDS011;20935;42.660;23.342;2023-02-28T03:02:06;31.07;;;20.27;;
8048;SDS011;20935;42.660;23.342;2023-02-28T03:04:56;32.50;;;21.77;;
8048;SDS011;20935;42.660;23.342;2023-02-28T03:07:46;29.93;;;19.97;;
8048;SDS011;20935;42.660;23.342;2023-02-28T03:10:34;30.83;;;19.30;;
8048;SDS011;20935;42.660;23.342;2023-02-28T03:13:26;36.67;;;22.60;;
8048;SDS011;20935;42.660;23.342;2023-02-28T03:16:35;34.13;;;21.60;;
8048;SDS011;20935;42.660;23.342;2023-02-28T03:19:42;30.43;;;20.80;;
8048;SDS011;20935;42.660;23.342;2023-02-28T03:22:46;35.20;;;20.83;;
8048;SDS011;20935;42.660;23.342;2023-02-28T03:25:41;34.07;;;22.13;;
8048;SDS011;20935;42.660;23.342;2023-02-28T03:28:39;34.37;;;22.30;;
8048;SDS011;20935;42.660;23.342;2023-02-28T03:31:30;28.83;;;20.30;;
8048;SDS011;20935;42.660;23.342;2023-02-28T03:34:22;31.77;;;20.63;;
8048;SDS011;20935;42.660;23.342;2023-02-28T03:37:11;33.13;;;21.87;;
8048;SDS011;20935;42.660;23.342;2023-02-28T03:40:02;31.23;;;20.70;;
8048;SDS011;20935;42.660;23.342;2023-02-28T03:42:54;35.03;;;23.33;;
8048;SDS011;20935;42.660;23.342;2023-02-28T03:45:43;33.53;;;20.93;;
8048;SDS011;20935;42.660;23.342;2023-02-28T03:48:31;32.73;;;21.43;;
8048;SDS011;20935;42.660;23.342;2023-02-28T03:51:20;34.80;;;21.50;;
8048;SDS011;20935;42.660;23.342;2023-02-28T03:54:09;35.00;;;21.80;;
8048;SDS011;20935;42.660;23.342;2023-02-28T03:56:59;42.40;;;25.03;;
8048;SDS011;20935;42.660;23.342;2023-02-28T03:59:49;47.63;;;26.57;;
8048;SDS011;20935;42.660;23.342;2023-02-28T04:02:41;52.10;;;26.83;;
8048;SDS011;20935;42.660;23.342;2023-02-28T04:05:27;52.77;;;26.80;;
8048;SDS011;20935;42.660;23.342;2023-02-28T04:08:13;50.87;;;28.30;;
8048;SDS011;20935;42.660;23.342;2023-02-28T04:11:00;56.63;;;28.40;;
8048;SDS011;20935;42.660;23.342;2023-02-28T04:13:49;49.47;;;27.50;;
8048;SDS011;20935;42.660;23.342;2023-02-28T04:16:37;57.23;;;26.90;;
8048;SDS011;20935;42.660;23.342;2023-02-28T04:19:23;56.20;;;26.47;;
8048;SDS011;20935;42.660;23.342;2023-02-28T04:22:09;61.03;;;26.67;;
8048;SDS011;20935;42.660;23.342;2023-02-28T04:24:55;51.10;;;24.83;;
8048;SDS011;20935;42.660;23.342;2023-02-28T04:27:40;36.70;;;22.73;;
8048;SDS011;20935;42.660;23.342;2023-02-28T04:30:28;35.03;;;20.87;;
8048;SDS011;20935;42.660;23.342;2023-02-28T04:33:17;38.80;;;21.57;;
8048;SDS011;20935;42.660;23.342;2023-02-28T04:36:03;40.37;;;20.40;;
8048;SDS011;20935;42.660;23.342;2023-02-28T04:38:49;36.07;;;20.33;;
8048;SDS011;20935;42.660;23.342;2023-02-28T04:41:35;40.27;;;21.70;;
8048;SDS011;20935;42.660;23.342;2023-02-28T04:44:20;38.23;;;20.87;;
8048;SDS011;20935;42.660;23.342;2023-02-28T04:47:06;42.53;;;22.00;;
8048;SDS011;20935;42.660;23.342;2023-02-28T04:49:53;39.23;;;22.97;;
8048;SDS011;20935;42.660;23.342;2023-02-28T04:52:38;40.20;;;22.73;;
8048;SDS011;20935;42.660;23.342;2023-02-28T04:55:24;39.17;;;22.43;;
8048;SDS011;20935;42.660;23.342;2023-02-28T04:58:09;40.53;;;23.77;;
8048;SDS011;20935;42.660;23.342;2023-02-28T05:00:57;42.90;;;23.97;;
8048;SDS011;20935;42.660;23.342;2023-02-28T05:03:47;41.60;;;23.90;;
8048;SDS011;20935;42.660;23.342;2023-02-28T05:06:34;61.27;;;26.30;;
8048;SDS011;20935;42.660;23.342;2023-02-28T05:09:20;54.53;;;27.20;;
8048;SDS011;20935;42.660;23.342;2023-02-28T05:12:05;51.37;;;25.17;;
8048;SDS011;20935;42.660;23.342;2023-02-28T05:14:51;78.83;;;28.50;;
8048;SDS011;20935;42.660;23.342;2023-02-28T05:17:36;53.50;;;26.77;;
8048;SDS011;20935;42.660;23.342;2023-02-28T05:20:22;63.23;;;29.07;;
8048;SDS011;20935;42.660;23.342;2023-02-28T05:23:09;58.50;;;29.07;;
8048;SDS011;20935;42.660;23.342;2023-02-28T05:25:57;54.40;;;28.17;;
8048;SDS011;20935;42.660;23.342;2023-02-28T05:28:42;51.80;;;28.70;;
8048;SDS011;20935;42.660;23.342;2023-02-28T05:31:27;59.83;;;28.83;;
8048;SDS011;20935;42.660;23.342;2023-02-28T05:34:13;52.80;;;27.43;;
8048;SDS011;20935;42.660;23.342;2023-02-28T05:36:59;52.40;;;26.00;;
8048;SDS011;20935;42.660;23.342;2023-02-28T05:39:46;48.30;;;26.50;;
8048;SDS011;20935;42.660;23.342;2023-02-28T05:42:31;49.97;;;25.90;;
8048;SDS011;20935;42.660;23.342;2023-02-28T05:45:17;44.90;;;26.07;;
8048;SDS011;20935;42.660;23.342;2023-02-28T05:48:03;60.63;;;29.13;;
8048;SDS011;20935;42.660;23.342;2023-02-28T05:50:48;50.60;;;28.00;;
8048;SDS011;20935;42.660;23.342;2023-02-28T05:53:33;49.27;;;26.93;;
8048;SDS011;20935;42.660;23.342;2023-02-28T05:56:21;52.43;;;29.63;;
8048;SDS011;20935;42.660;23.342;2023-02-28T05:59:06;53.23;;;29.17;;
8048;SDS011;20935;42.660;23.342;2023-02-28T06:01:51;52.40;;;28.10;;
8048;SDS011;20935;42.660;23.342;2023-02-28T06:04:37;52.07;;;29.23;;
8048;SDS011;20935;42.660;23.342;2023-02-28T06:07:24;55.40;;;31.53;;
8048;SDS011;20935;42.660;23.342;2023-02-28T06:10:10;54.90;;;31.80;;
8048;SDS011;20935;42.660;23.342;2023-02-28T06:13:00;61.70;;;33.23;;
8048;SDS011;20935;42.660;23.342;2023-02-28T06:15:47;58.87;;;31.17;;
8048;SDS011;20935;42.660;23.342;2023-02-28T06:18:32;49.50;;;29.63;;
8048;SDS011;20935;42.660;23.342;2023-02-28T06:21:18;51.77;;;29.23;;
8048;SDS011;20935;42.660;23.342;2023-02-28T06:24:03;53.77;;;28.83;;
8048;SDS011;20935;42.660;23.342;2023-02-28T06:26:49;54.50;;;29.90;;
8048;SDS011;20935;42.660;23.342;2023-02-28T06:29:36;53.30;;;29.43;;
8048;SDS011;20935;42.660;23.342;2023-02-28T06:32:23;58.43;;;31.97;;
8048;SDS011;20935;42.660;23.342;2023-02-28T06:35:09;55.77;;;29.60;;
8048;SDS011;20935;42.660;23.342;2023-02-28T06:37:57;58.07;;;30.43;;
8048;SDS011;20935;42.660;23.342;2023-02-28T06:40:42;60.73;;;32.53;;
8048;SDS011;20935;42.660;23.342;2023-02-28T06:43:28;57.83;;;31.53;;
8048;SDS011;20935;42.660;23.342;2023-02-28T06:46:17;48.77;;;29.10;;
8048;SDS011;20935;42.660;23.342;2023-02-28T06:49:02;49.07;;;28.97;;
8048;SDS011;20935;42.660;23.342;2023-02-28T06:51:52;44.20;;;27.53;;
8048;SDS011;20935;42.660;23.342;2023-02-28T06:54:38;49.90;;;28.23;;
8048;SDS011;20935;42.660;23.342;2023-02-28T06:57:24;48.97;;;28.27;;
8048;SDS011;20935;42.660;23.342;2023-02-28T07:00:10;46.30;;;27.53;;
8048;SDS011;20935;42.660;23.342;2023-02-28T07:03:01;45.10;;;24.93;;
8048;SDS011;20935;42.660;23.342;2023-02-28T07:05:47;46.30;;;26.13;;
8048;SDS011;20935;42.660;23.342;2023-02-28T07:08:32;48.53;;;28.97;;
8048;SDS011;20935;42.660;23.342;2023-02-28T07:11:17;55.60;;;30.53;;
8048;SDS011;20935;42.660;23.342;2023-02-28T07:14:03;48.33;;;27.77;;
8048;SDS011;20935;42.660;23.342;2023-02-28T07:16:49;47.27;;;28.43;;
8048;SDS011;20935;42.660;23.342;2023-02-28T07:19:36;52.87;;;28.60;;
8048;SDS011;20935;42.660;23.342;2023-02-28T07:22:21;44.97;;;26.90;;
8048;SDS011;20935;42.660;23.342;2023-02-28T07:25:07;47.73;;;27.97;;
8048;SDS011;20935;42.660;23.342;2023-02-28T07:27:53;43.17;;;27.40;;
8048;SDS011;20935;42.660;23.342;2023-02-28T07:30:39;47.67;;;27.60;;
8048;SDS011;20935;42.660;23.342;2023-02-28T07:33:25;45.40;;;26.37;;
8048;SDS011;20935;42.660;23.342;2023-02-28T07:36:15;39.90;;;26.30;;
8048;SDS011;20935;42.660;23.342;2023-02-28T07:39:02;41.73;;;26.50;;
8048;SDS011;20935;42.660;23.342;2023-02-28T07:41:47;39.57;;;25.17;;
8048;SDS011;20935;42.660;23.342;2023-02-28T07:44:33;36.50;;;23.47;;
8048;SDS011;20935;42.660;23.342;2023-02-28T07:47:19;40.17;;;25.40;;
8048;SDS011;20935;42.660;23.342;2023-02-28T07:50:05;38.03;;;24.87;;
8048;SDS011;20935;42.660;23.342;2023-02-28T07:52:53;35.93;;;24.87;;
8048;SDS011;20935;42.660;23.342;2023-02-28T07:55:38;43.90;;;26.47;;
8048;SDS011;20935;42.660;23.342;2023-02-28T07:58:24;41.23;;;25.03;;
8048;SDS011;20935;42.660;23.342;2023-02-28T08:01:11;35.13;;;24.03;;
8048;SDS011;20935;42.660;23.342;2023-02-28T08:03:57;40.20;;;26.10;;
8048;SDS011;20935;42.660;23.342;2023-02-28T08:06:43;37.40;;;24.43;;
8048;SDS011;20935;42.660;23.342;2023-02-28T08:09:30;35.30;;;22.77;;
8048;SDS011;20935;42.660;23.342;2023-02-28T08:12:15;36.17;;;23.03;;
8048;SDS011;20935;42.660;23.342;2023-02-28T08:15:00;35.60;;;24.30;;
8048;SDS011;20935;42.660;23.342;2023-02-28T08:17:46;46.63;;;25.57;;
8048;SDS011;20935;42.660;23.342;2023-02-28T08:20:31;33.83;;;22.50;;
8048;SDS011;20935;42.660;23.342;2023-02-28T08:23:17;36.77;;;24.37;;
8048;SDS011;20935;42.660;23.342;2023-02-28T08:26:04;36.50;;;24.47;;
8048;SDS011;20935;42.660;23.342;2023-02-28T08:28:49;31.77;;;22.73;;
8048;SDS011;20935;42.660;23.342;2023-02-28T08:31:35;34.60;;;22.83;;
8048;SDS011;20935;42.660;23.342;2023-02-28T08:34:21;33.40;;;22.50;;
8048;SDS011;20935;42.660;23.342;2023-02-28T08:37:06;34.27;;;24.03;;
8048;SDS011;20935;42.660;23.342;2023-02-28T08:39:52;38.77;;;23.90;;
8048;SDS011;20935;42.660;23.342;2023-02-28T08:42:39;40.07;;;23.90;;
8048;SDS011;20935;42.660;23.342;2023-02-28T08:45:24;33.40;;;23.13;;
8048;SDS011;20935;42.660;23.342;2023-02-28T08:48:10;31.47;;;22.70;;
8048;SDS011;20935;42.660;23.342;2023-02-28T08:50:56;34.97;;;21.63;;
8048;SDS011;20935;42.660;23.342;2023-02-28T08:53:41;32.50;;;20.83;;
8048;SDS011;20935;42.660;23.342;2023-02-28T08:56:27;36.40;;;23.67;;
8048;SDS011;20935;42.660;23.342;2023-02-28T08:59:15;36.20;;;23.47;;
8048;SDS011;20935;42.660;23.342;2023-02-28T09:02:00;37.00;;;24.20;;
8048;SDS011;20935;42.660;23.342;2023-02-28T09:04:45;33.97;;;22.47;;
8048;SDS011;20935;42.660;23.342;2023-02-28T09:07:31;39.03;;;25.03;;
8048;SDS011;20935;42.660;23.342;2023-02-28T09:10:16;37.83;;;23.50;;
8048;SDS011;20935;42.660;23.342;2023-02-28T09:13:02;39.87;;;25.63;;
8048;SDS011;20935;42.660;23.342;2023-02-28T09:15:49;37.80;;;23.83;;
8048;SDS011;20935;42.660;23.342;2023-02-28T09:18:34;39.40;;;25.10;;
8048;SDS011;20935;42.660;23.342;2023-02-28T09:21:21;41.53;;;25.10;;
8048;SDS011;20935;42.660;23.342;2023-02-28T09:24:06;47.43;;;28.23;;
8048;SDS011;20935;42.660;23.342;2023-02-28T09:26:52;54.63;;;31.83;;
8048;SDS011;20935;42.660;23.342;2023-02-28T09:29:38;48.20;;;29.40;;
8048;SDS011;20935;42.660;23.342;2023-02-28T09:32:25;51.90;;;30.57;;
8048;SDS011;20935;42.660;23.342;2023-02-28T09:35:11;47.60;;;27.93;;
8048;SDS011;20935;42.660;23.342;2023-02-28T09:38:00;52.03;;;29.77;;
8048;SDS011;20935;42.660;23.342;2023-02-28T09:40:47;48.67;;;31.30;;
8048;SDS011;20935;42.660;23.342;2023-02-28T09:43:35;38.53;;;20.03;;
8048;SDS011;20935;42.660;23.342;2023-02-28T09:46:27;33.33;;;17.97;;
8048;SDS011;20935;42.660;23.342;2023-02-28T09:49:19;28.87;;;16.80;;
8048;SDS011;20935;42.660;23.342;2023-02-28T09:52:09;26.60;;;15.80;;
8048;SDS011;20935;42.660;23.342;2023-02-28T09:55:18;26.50;;;15.20;;
8048;SDS011;20935;42.660;23.342;2023-02-28T09:58:08;27.47;;;16.50;;
8048;SDS011;20935;42.660;23.342;2023-02-28T10:01:06;29.07;;;15.10;;
8048;SDS011;20935;42.660;23.342;2023-02-28T10:03:57;23.33;;;14.83;;
8048;SDS011;20935;42.660;23.342;2023-02-28T10:06:46;22.93;;;14.80;;
8048;SDS011;20935;42.660;23.342;2023-02-28T10:09:34;24.87;;;12.83;;
8048;SDS011;20935;42.660;23.342;2023-02-28T10:12:21;23.87;;;13.57;;
8048;SDS011;20935;42.660;23.342;2023-02-28T10:15:07;22.90;;;12.87;;
8048;SDS011;20935;42.660;23.342;2023-02-28T10:17:59;24.33;;;12.83;;
8048;SDS011;20935;42.660;23.342;2023-02-28T10:20:48;27.20;;;13.57;;
8048;SDS011;20935;42.660;23.342;2023-02-28T10:23:37;28.47;;;13.67;;
8048;SDS011;20935;42.660;23.342;2023-02-28T10:26:22;26.10;;;13.97;;
8048;SDS011;20935;42.660;23.342;2023-02-28T10:29:13;23.67;;;12.83;;
8048;SDS011;20935;42.660;23.342;2023-02-28T10:31:58;31.97;;;13.77;;
8048;SDS011;20935;42.660;23.342;2023-02-28T10:34:49;25.20;;;12.80;;
8048;SDS011;20935;42.660;23.342;2023-02-28T10:37:37;19.50;;;12.77;;
8048;SDS011;20935;42.660;23.342;2023-02-28T10:40:30;21.60;;;12.23;;
8048;SDS011;20935;42.660;23.342;2023-02-28T10:43:20;22.47;;;12.87;;
8048;SDS011;20935;42.660;23.342;2023-02-28T10:46:13;23.17;;;11.10;;
8048;SDS011;20935;42.660;23.342;2023-02-28T10:49:12;22.47;;;11.77;;
8048;SDS011;20935;42.660;23.342;2023-02-28T10:52:02;23.93;;;11.33;;
8048;SDS011;20935;42.660;23.342;2023-02-28T10:54:47;21.80;;;12.13;;
8048;SDS011;20935;42.660;23.342;2023-02-28T10:57:34;20.40;;;13.00;;
8048;SDS011;20935;42.660;23.342;2023-02-28T11:00:21;22.87;;;12.73;;
8048;SDS011;20935;42.660;23.342;2023-02-28T11:03:13;24.07;;;12.23;;
8048;SDS011;20935;42.660;23.342;2023-02-28T11:06:13;22.37;;;12.00;;
8048;SDS011;20935;42.660;23.342;2023-02-28T11:09:02;23.00;;;12.47;;
8048;SDS011;20935;42.660;23.342;2023-02-28T11:12:00;23.20;;;11.20;;
8048;SDS011;20935;42.660;23.342;2023-02-28T11:14:48;23.43;;;12.90;;
8048;SDS011;20935;42.660;23.342;2023-02-28T11:17:35;18.60;;;11.83;;
8048;SDS011;20935;42.660;23.342;2023-02-28T11:20:21;24.13;;;12.40;;
8048;SDS011;20935;42.660;23.342;2023-02-28T11:23:11;26.50;;;11.90;;
8048;SDS011;20935;42.660;23.342;2023-02-28T11:25:59;20.93;;;12.37;;
8048;SDS011;20935;42.660;23.342;2023-02-28T11:28:46;24.57;;;12.27;;
8048;SDS011;20935;42.660;23.342;2023-02-28T11:31:33;22.27;;;11.30;;
8048;SDS011;20935;42.660;23.342;2023-02-28T11:34:23;21.57;;;12.43;;
8048;SDS011;20935;42.660;23.342;2023-02-28T11:37:12;26.53;;;12.73;;
8048;SDS011;20935;42.660;23.342;2023-02-28T11:39:59;27.23;;;12.87;;
8048;SDS011;20935;42.660;23.342;2023-02-28T11:42:48;22.40;;;14.13;;
8048;SDS011;20935;42.660;23.342;2023-02-28T11:45:44;23.93;;;13.10;;
8048;SDS011;20935;42.660;23.342;2023-02-28T11:48:40;29.10;;;13.17;;
8048;SDS011;20935;42.660;23.342;2023-02-28T11:51:32;26.70;;;13.40;;
8048;SDS011;20935;42.660;23.342;2023-02-28T11:57:47;26.97;;;14.70;;
8048;SDS011;20935;42.660;23.342;2023-02-28T12:00:45;22.33;;;13.17;;
8048;SDS011;20935;42.660;23.342;2023-02-28T12:03:57;30.97;;;14.87;;
8048;SDS011;20935;42.660;23.342;2023-02-28T12:06:50;27.93;;;12.47;;
8048;SDS011;20935;42.660;23.342;2023-02-28T12:09:43;23.70;;;13.93;;
8048;SDS011;20935;42.660;23.342;2023-02-28T12:12:38;26.73;;;14.13;;
8048;SDS011;20935;42.660;23.342;2023-02-28T12:15:38;36.27;;;14.23;;
8048;SDS011;20935;42.660;23.342;2023-02-28T12:18:37;24.33;;;13.40;;
8048;SDS011;20935;42.660;23.342;2023-02-28T12:21:39;27.07;;;15.00;;
8048;SDS011;20935;42.660;23.342;2023-02-28T12:24:46;24.30;;;12.50;;
8048;SDS011;20935;42.660;23.342;2023-02-28T12:27:42;27.13;;;14.77;;
8048;SDS011;20935;42.660;23.342;2023-02-28T12:30:31;25.07;;;13.77;;
8048;SDS011;20935;42.660;23.342;2023-02-28T12:33:20;22.20;;;14.37;;
8048;SDS011;20935;42.660;23.342;2023-02-28T12:36:10;25.10;;;13.83;;
8048;SDS011;20935;42.660;23.342;2023-02-28T12:39:03;22.30;;;12.97;;
8048;SDS011;20935;42.660;23.342;2023-02-28T12:41:54;22.77;;;12.90;;
8048;SDS011;20935;42.660;23.342;2023-02-28T12:44:48;22.03;;;12.63;;
8048;SDS011;20935;42.660;23.342;2023-02-28T12:47:37;22.10;;;12.67;;
8048;SDS011;20935;42.660;23.342;2023-02-28T12:50:25;23.27;;;12.33;;
8048;SDS011;20935;42.660;23.342;2023-02-28T12:53:15;22.47;;;12.77;;
8048;SDS011;20935;42.660;23.342;2023-02-28T12:56:13;23.43;;;12.37;;
8048;SDS011;20935;42.660;23.342;2023-02-28T12:59:03;24.13;;;13.23;;
8048;SDS011;20935;42.660;23.342;2023-02-28T13:05:30;22.00;;;11.90;;
8048;SDS011;20935;42.660;23.342;2023-02-28T13:08:42;22.90;;;12.63;;
8048;SDS011;20935;42.660;23.342;2023-02-28T13:11:47;18.13;;;12.20;;
8048;SDS011;20935;42.660;23.342;2023-02-28T13:14:35;20.87;;;12.30;;
8048;SDS011;20935;42.660;23.342;2023-02-28T13:17:23;23.40;;;12.53;;
8048;SDS011;20935;42.660;23.342;2023-02-28T13:20:15;29.70;;;13.43;;
8048;SDS011;20935;42.660;23.342;2023-02-28T13:23:01;21.20;;;11.87;;
8048;SDS011;20935;42.660;23.342;2023-02-28T13:25:49;29.40;;;13.50;;
8048;SDS011;20935;42.660;23.342;2023-02-28T13:32:32;22.73;;;12.50;;
8048;SDS011;20935;42.660;23.342;2023-02-28T13:38:34;18.60;;;10.83;;
8048;SDS011;20935;42.660;23.342;2023-02-28T13:44:27;19.13;;;10.47;;
8048;SDS011;20935;42.660;23.342;2023-02-28T13:47:19;19.73;;;9.87;;
8048;SDS011;20935;42.660;23.342;2023-02-28T13:50:21;18.60;;;9.63;;
8048;SDS011;20935;42.660;23.342;2023-02-28T13:56:41;21.83;;;10.50;;
8048;SDS011;20935;42.660;23.342;2023-02-28T13:59:31;18.33;;;9.60;;
8048;SDS011;20935;42.660;23.342;2023-02-28T14:02:35;17.80;;;9.47;;
8048;SDS011;20935;42.660;23.342;2023-02-28T14:05:34;17.73;;;9.90;;
8048;SDS011;20935;42.660;23.342;2023-02-28T14:08:22;15.70;;;10.23;;
8048;SDS011;20935;42.660;23.342;2023-02-28T14:11:22;23.17;;;10.73;;
8048;SDS011;20935;42.660;23.342;2023-02-28T14:14:52;28.03;;;12.10;;
8048;SDS011;20935;42.660;23.342;2023-02-28T14:17:33;21.17;;;11.37;;
8048;SDS011;20935;42.660;23.342;2023-02-28T14:20:21;20.40;;;11.50;;
8048;SDS011;20935;42.660;23.342;2023-02-28T14:23:13;18.83;;;11.40;;
8048;SDS011;20935;42.660;23.342;2023-02-28T14:26:07;16.37;;;11.63;;
8048;SDS011;20935;42.660;23.342;2023-02-28T14:29:16;21.97;;;11.27;;
8048;SDS011;20935;42.660;23.342;2023-02-28T14:32:15;21.83;;;12.00;;
8048;SDS011;20935;42.660;23.342;2023-02-28T14:35:13;24.23;;;11.80;;
8048;SDS011;20935;42.660;23.342;2023-02-28T14:38:16;21.53;;;12.37;;
8048;SDS011;20935;42.660;23.342;2023-02-28T14:41:06;22.13;;;11.97;;
8048;SDS011;20935;42.660;23.342;2023-02-28T14:44:01;19.20;;;11.50;;
8048;SDS011;20935;42.660;23.342;2023-02-28T14:46:48;18.47;;;12.07;;
8048;SDS011;20935;42.660;23.342;2023-02-28T14:49:35;21.27;;;11.93;;
8048;SDS011;20935;42.660;23.342;2023-02-28T14:52:23;20.93;;;10.77;;
8048;SDS011;20935;42.660;23.342;2023-02-28T14:55:14;20.80;;;11.67;;
8048;SDS011;20935;42.660;23.342;2023-02-28T14:58:03;18.50;;;12.27;;
8048;SDS011;20935;42.660;23.342;2023-02-28T15:00:52;28.03;;;12.27;;
8048;SDS011;20935;42.660;23.342;2023-02-28T15:03:39;26.30;;;13.57;;
8048;SDS011;20935;42.660;23.342;2023-02-28T15:06:28;20.47;;;10.33;;
8048;SDS011;20935;42.660;23.342;2023-02-28T15:09:15;23.17;;;11.63;;
8048;SDS011;20935;42.660;23.342;2023-02-28T15:12:04;19.37;;;11.30;;
8048;SDS011;20935;42.660;23.342;2023-02-28T15:14:50;19.63;;;12.27;;
8048;SDS011;20935;42.660;23.342;2023-02-28T15:17:35;20.90;;;11.37;;
8048;SDS011;20935;42.660;23.342;2023-02-28T15:20:21;19.67;;;11.40;;
8048;SDS011;20935;42.660;23.342;2023-02-28T15:23:08;18.07;;;9.47;;
8048;SDS011;20935;42.660;23.342;2023-02-28T15:25:54;20.37;;;10.03;;
8048;SDS011;20935;42.660;23.342;2023-02-28T15:28:42;18.90;;;9.70;;
8048;SDS011;20935;42.660;23.342;2023-02-28T15:31:29;13.67;;;8.80;;
8048;SDS011;20935;42.660;23.342;2023-02-28T15:34:19;22.27;;;9.80;;
8048;SDS011;20935;42.660;23.342;2023-02-28T15:37:06;19.20;;;9.30;;
8048;SDS011;20935;42.660;23.342;2023-02-28T15:40:13;13.27;;;8.53;;
8048;SDS011;20935;42.660;23.342;2023-02-28T15:43:05;19.00;;;10.47;;
8048;SDS011;20935;42.660;23.342;2023-02-28T15:45:55;15.10;;;10.90;;
8048;SDS011;20935;42.660;23.342;2023-02-28T15:48:43;14.67;;;10.13;;
8048;SDS011;20935;42.660;23.342;2023-02-28T15:51:35;22.17;;;10.27;;
8048;SDS011;20935;42.660;23.342;2023-02-28T15:54:24;15.20;;;10.00;;
8048;SDS011;20935;42.660;23.342;2023-02-28T15:57:13;13.05;;;9.10;;
8048;SDS011;20935;42.660;23.342;2023-02-28T16:00:02;15.77;;;8.50;;
8048;SDS011;20935;42.660;23.342;2023-02-28T16:02:51;10.80;;;7.90;;
8048;SDS011;20935;42.660;23.342;2023-02-28T16:05:36;11.33;;;8.63;;
8048;SDS011;20935;42.660;23.342;2023-02-28T16:08:22;12.10;;;9.40;;
8048;SDS011;20935;42.660;23.342;2023-02-28T16:11:08;13.90;;;9.17;;
8048;SDS011;20935;42.660;23.342;2023-02-28T16:13:56;13.57;;;9.67;;
8048;SDS011;20935;42.660;23.342;2023-02-28T16:16:42;16.87;;;9.67;;
8048;SDS011;20935;42.660;23.342;2023-02-28T16:19:30;16.10;;;9.57;;
8048;SDS011;20935;42.660;23.342;2023-02-28T16:22:16;13.67;;;9.37;;
8048;SDS011;20935;42.660;23.342;2023-02-28T16:25:01;11.80;;;8.63;;
8048;SDS011;20935;42.660;23.342;2023-02-28T16:27:48;14.50;;;9.83;;
8048;SDS011;20935;42.660;23.342;2023-02-28T16:30:37;13.17;;;9.23;;
8048;SDS011;20935;42.660;23.342;2023-02-28T16:33:23;12.43;;;8.17;;
8048;SDS011;20935;42.660;23.342;2023-02-28T16:36:10;13.40;;;8.23;;
8048;SDS011;20935;42.660;23.342;2023-02-28T16:38:59;10.57;;;8.40;;
8048;SDS011;20935;42.660;23.342;2023-02-28T16:41:45;12.60;;;7.63;;
8048;SDS011;20935;42.660;23.342;2023-02-28T16:44:33;10.53;;;8.27;;
8048;SDS011;20935;42.660;23.342;2023-02-28T16:47:20;10.60;;;7.77;;
8048;SDS011;20935;42.660;23.342;2023-02-28T16:50:09;10.17;;;7.90;;
8048;SDS011;20935;42.660;23.342;2023-02-28T16:53:02;9.10;;;7.30;;
8048;SDS011;20935;42.660;23.342;2023-02-28T16:55:47;14.13;;;8.13;;
8048;SDS011;20935;42.660;23.342;2023-02-28T16:58:34;11.00;;;8.03;;